Time;durP1;ratioP1;P1;durP2;ratioP2;P2;SDS_P1;SDS_P2;PMS_P1;PMS_P2;Temp;Humidity;BMP_temperature;BMP_pressure;BME280_temperature;BME280_humidity;BME280_pressure;Samples;Min_cycle;Max_cycle;Signal;HPM_P1;HPM_P2
2020/12/05 00:00:44;;;;;;;4.53;2.20;;;;;;;;;;4978765;28;20065;-53
2020/12/05 00:03:10;;;;;;;5.28;1.70;;;;;;;;;;4986547;28;20120;-57
2020/12/05 00:05:36;;;;;;;5.53;2.05;;;;;;;;;;4990523;28;20062;-60
2020/12/05 00:08:03;;;;;;;3.63;1.83;;;;;;;;;;4981957;28;20053;-57
2020/12/05 00:10:29;;;;;;;5.25;2.00;;;;;;;;;;4984598;28;20046;-52
2020/12/05 00:12:56;;;;;;;11.80;2.17;;;;;;;;;;4982246;28;20031;-59
2020/12/05 00:15:22;;;;;;;6.95;2.20;;;;;;;;;;4982242;28;20050;-54
2020/12/05 00:17:48;;;;;;;6.22;1.95;;;;;;;;;;5001561;28;20046;-54
2020/12/05 00:20:17;;;;;;;5.72;2.05;;;;;;;;;;4994117;28;20053;-56
2020/12/05 00:22:43;;;;;;;5.53;1.90;;;;;;;;;;4981672;28;20042;-58
2020/12/05 00:25:09;;;;;;;5.40;1.60;;;;;;;;;;4982580;28;20039;-55
2020/12/05 00:27:35;;;;;;;8.32;2.03;;;;;;;;;;4996385;28;20125;-54
2020/12/05 00:30:06;;;;;;;4.95;1.95;;;;;;;;;;5001716;28;20038;-59
2020/12/05 00:32:32;;;;;;;5.05;1.90;;;;;;;;;;4997413;28;20108;-59
2020/12/05 00:34:58;;;;;;;5.20;2.20;;;;;;;;;;5016583;28;20045;-57
2020/12/05 00:37:27;;;;;;;4.57;1.65;;;;;;;;;;4997258;28;20066;-57
2020/12/05 00:39:54;;;;;;;5.95;1.98;;;;;;;;;;5001149;28;20054;-56
2020/12/05 00:42:20;;;;;;;7.90;1.85;;;;;;;;;;4985216;28;20143;-55
2020/12/05 00:44:46;;;;;;;4.53;1.90;;;;;;;;;;4982856;28;20090;-57
2020/12/05 00:47:12;;;;;;;7.63;1.85;;;;;;;;;;4976602;28;20033;-59
2020/12/05 00:49:42;;;;;;;4.07;1.75;;;;;;;;;;5002243;28;20038;-56
2020/12/05 00:52:08;;;;;;;3.42;1.63;;;;;;;;;;4997129;28;20124;-58
2020/12/05 00:54:34;;;;;;;5.53;1.60;;;;;;;;;;5002926;28;20062;-54
2020/12/05 00:57:00;;;;;;;5.10;1.52;;;;;;;;;;4996941;28;20038;-56
2020/12/05 00:59:26;;;;;;;4.10;1.42;;;;;;;;;;4983093;28;20038;-55
2020/12/05 01:01:53;;;;;;;3.03;1.40;;;;;;;;;;4980326;28;20054;-58
2020/12/05 01:04:19;;;;;;;4.28;1.50;;;;;;;;;;5015749;28;20030;-55
2020/12/05 01:06:45;;;;;;;3.30;1.48;;;;;;;;;;5019206;28;20052;-58
2020/12/05 01:09:11;;;;;;;4.82;1.75;;;;;;;;;;5033736;28;20081;-60
2020/12/05 01:11:37;;;;;;;2.58;1.27;;;;;;;;;;5020520;28;20050;-58
2020/12/05 01:14:04;;;;;;;5.07;1.63;;;;;;;;;;5032801;28;20046;-60
2020/12/05 01:16:31;;;;;;;7.00;1.52;;;;;;;;;;5036993;28;20038;-58
2020/12/05 01:18:57;;;;;;;3.30;1.52;;;;;;;;;;5015744;28;20041;-58
2020/12/05 01:21:24;;;;;;;3.10;1.27;;;;;;;;;;5020488;28;20057;-58
2020/12/05 01:23:50;;;;;;;4.53;1.52;;;;;;;;;;5016109;28;20026;-55
2020/12/05 01:26:24;;;;;;;3.92;1.50;;;;;;;;;;5022250;28;20116;-54
2020/12/05 01:28:50;;;;;;;8.05;1.73;;;;;;;;;;5008793;28;20095;-59
2020/12/05 01:31:18;;;;;;;3.58;1.60;;;;;;;;;;4999303;28;20081;-58
2020/12/05 01:33:44;;;;;;;8.02;2.15;;;;;;;;;;4997349;28;20054;-59
2020/12/05 01:36:10;;;;;;;4.60;1.70;;;;;;;;;;5000150;28;20064;-58
2020/12/05 01:38:37;;;;;;;5.20;1.77;;;;;;;;;;4996569;28;20041;-57
2020/12/05 01:41:03;;;;;;;9.43;2.10;;;;;;;;;;4997666;28;20071;-54
2020/12/05 01:43:32;;;;;;;8.30;1.88;;;;;;;;;;4980238;28;20046;-55
2020/12/05 01:45:59;;;;;;;5.70;2.17;;;;;;;;;;4997230;28;20058;-56
2020/12/05 01:48:25;;;;;;;2.55;1.48;;;;;;;;;;4980308;28;20038;-58
2020/12/05 01:50:53;;;;;;;4.45;2.00;;;;;;;;;;5015932;28;20092;-59
2020/12/05 01:53:19;;;;;;;5.95;1.90;;;;;;;;;;5020658;28;20045;-59
2020/12/05 01:55:47;;;;;;;4.15;1.80;;;;;;;;;;4999657;28;20078;-59
2020/12/05 01:58:13;;;;;;;8.07;1.92;;;;;;;;;;4999086;28;20057;-59
2020/12/05 02:00:42;;;;;;;4.30;1.70;;;;;;;;;;4997092;28;20058;-60
2020/12/05 02:03:11;;;;;;;3.83;1.67;;;;;;;;;;4997351;28;20039;-59
2020/12/05 02:05:44;;;;;;;6.93;1.75;;;;;;;;;;4980778;28;20049;-58
2020/12/05 02:08:12;;;;;;;5.57;1.48;;;;;;;;;;4984419;28;20042;-61
2020/12/05 02:10:40;;;;;;;3.83;1.73;;;;;;;;;;4995422;28;20066;-57
2020/12/05 02:13:09;;;;;;;3.97;1.80;;;;;;;;;;5003207;28;20038;-60
2020/12/05 02:15:37;;;;;;;5.60;1.80;;;;;;;;;;4984830;28;20042;-58
2020/12/05 02:18:04;;;;;;;6.35;2.08;;;;;;;;;;4983602;28;20078;-57
2020/12/05 02:20:33;;;;;;;4.93;1.88;;;;;;;;;;4987374;28;20098;-57
2020/12/05 02:23:06;;;;;;;5.82;2.00;;;;;;;;;;5003434;28;20085;-56
2020/12/05 02:25:32;;;;;;;4.57;1.38;;;;;;;;;;4995841;28;20116;-57
2020/12/05 02:27:59;;;;;;;3.50;1.60;;;;;;;;;;4982446;28;20058;-56
2020/12/05 02:30:25;;;;;;;5.60;1.80;;;;;;;;;;4980162;28;20051;-58
2020/12/05 02:32:51;;;;;;;3.83;1.85;;;;;;;;;;4984023;28;20074;-60
2020/12/05 02:35:17;;;;;;;5.45;1.85;;;;;;;;;;4982437;28;20047;-58
2020/12/05 02:37:43;;;;;;;5.72;2.10;;;;;;;;;;4996611;28;20081;-59
2020/12/05 02:40:11;;;;;;;8.50;1.63;;;;;;;;;;5003232;28;20049;-56
2020/12/05 02:42:37;;;;;;;4.40;1.87;;;;;;;;;;4983019;28;20049;-58
2020/12/05 02:45:08;;;;;;;4.45;1.80;;;;;;;;;;4983498;28;20091;-58
2020/12/05 02:47:34;;;;;;;6.63;1.83;;;;;;;;;;4993326;28;20058;-58
2020/12/05 02:50:02;;;;;;;5.38;2.05;;;;;;;;;;4995437;28;20061;-58
2020/12/05 02:52:28;;;;;;;6.30;2.00;;;;;;;;;;4998659;28;20140;-58
2020/12/05 02:54:54;;;;;;;4.20;1.85;;;;;;;;;;5003108;28;20035;-55
2020/12/05 02:57:21;;;;;;;3.55;1.83;;;;;;;;;;4998901;28;20057;-56
2020/12/05 02:59:47;;;;;;;4.55;2.08;;;;;;;;;;5002922;28;20046;-59
2020/12/05 03:02:13;;;;;;;6.00;2.00;;;;;;;;;;4987091;28;20057;-55
2020/12/05 03:04:39;;;;;;;4.75;1.98;;;;;;;;;;5019017;28;20049;-57
2020/12/05 03:07:05;;;;;;;4.55;1.70;;;;;;;;;;5014827;28;20050;-56
2020/12/05 03:09:32;;;;;;;5.45;2.08;;;;;;;;;;5000572;28;20049;-60
2020/12/05 03:11:58;;;;;;;4.68;1.88;;;;;;;;;;4999072;28;20128;-59
2020/12/05 03:14:24;;;;;;;4.55;1.88;;;;;;;;;;4984667;28;20065;-59
2020/12/05 03:16:51;;;;;;;3.58;1.70;;;;;;;;;;4984133;28;20150;-61
2020/12/05 03:19:17;;;;;;;5.90;2.08;;;;;;;;;;5015801;28;20053;-55
2020/12/05 03:21:48;;;;;;;5.82;1.90;;;;;;;;;;5037941;28;20112;-56
2020/12/05 03:24:14;;;;;;;4.32;1.95;;;;;;;;;;5002637;28;20101;-56
2020/12/05 03:26:40;;;;;;;7.05;1.83;;;;;;;;;;5002973;28;20038;-60
2020/12/05 03:29:06;;;;;;;7.60;2.30;;;;;;;;;;5015288;28;20048;-61
2020/12/05 03:31:45;;;;;;;4.13;1.98;;;;;;;;;;5002123;28;20053;-59
2020/12/05 03:34:11;;;;;;;6.43;2.05;;;;;;;;;;4997519;28;20045;-57
2020/12/05 03:36:37;;;;;;;4.88;1.73;;;;;;;;;;5002645;28;20099;-56
2020/12/05 03:39:04;;;;;;;6.35;1.95;;;;;;;;;;4997928;28;20041;-56
2020/12/05 03:41:30;;;;;;;5.78;1.98;;;;;;;;;;5002826;28;20050;-57
2020/12/05 03:43:56;;;;;;;6.55;2.25;;;;;;;;;;5015918;28;20074;-58
2020/12/05 03:46:22;;;;;;;6.68;1.95;;;;;;;;;;5003239;28;20046;-58
2020/12/05 03:48:49;;;;;;;6.70;1.90;;;;;;;;;;5001835;28;20169;-58
2020/12/05 03:51:17;;;;;;;6.68;1.95;;;;;;;;;;5003065;28;20046;-56
2020/12/05 03:53:43;;;;;;;5.50;1.83;;;;;;;;;;4999571;28;20132;-58
2020/12/05 03:56:09;;;;;;;4.85;2.00;;;;;;;;;;5002067;28;20291;-60
2020/12/05 03:58:35;;;;;;;5.35;2.10;;;;;;;;;;5000692;28;20030;-58
2020/12/05 04:01:01;;;;;;;6.72;2.40;;;;;;;;;;4998653;28;20042;-58
2020/12/05 04:03:27;;;;;;;4.47;2.00;;;;;;;;;;4994176;28;20082;-57
2020/12/05 04:05:54;;;;;;;2.95;1.67;;;;;;;;;;4979475;28;20066;-58
2020/12/05 04:08:20;;;;;;;5.63;1.70;;;;;;;;;;4981921;28;20162;-60
2020/12/05 04:10:47;;;;;;;6.47;2.33;;;;;;;;;;4977547;28;20049;-59
2020/12/05 04:13:13;;;;;;;6.32;1.80;;;;;;;;;;4982132;28;20030;-57
2020/12/05 04:15:40;;;;;;;5.50;2.13;;;;;;;;;;4989679;28;20053;-58
2020/12/05 04:18:07;;;;;;;5.03;1.98;;;;;;;;;;4980133;28;20067;-55
2020/12/05 04:20:33;;;;;;;8.88;2.20;;;;;;;;;;4985023;28;20068;-59
2020/12/05 04:23:00;;;;;;;5.07;1.92;;;;;;;;;;4981792;28;20058;-58
2020/12/05 04:25:26;;;;;;;4.32;1.92;;;;;;;;;;4984987;28;20069;-55
2020/12/05 04:27:52;;;;;;;3.88;1.77;;;;;;;;;;5001195;28;20038;-56
2020/12/05 04:30:18;;;;;;;6.13;1.88;;;;;;;;;;4996164;28;20096;-60
2020/12/05 04:32:44;;;;;;;9.55;1.88;;;;;;;;;;5001036;28;20038;-56
2020/12/05 04:35:11;;;;;;;6.88;2.13;;;;;;;;;;5014434;28;20046;-59
2020/12/05 04:37:37;;;;;;;5.93;1.73;;;;;;;;;;5001711;28;20056;-59
2020/12/05 04:40:05;;;;;;;5.65;2.13;;;;;;;;;;5001613;28;20049;-58
2020/12/05 04:42:31;;;;;;;3.75;1.60;;;;;;;;;;4983960;28;20061;-58
2020/12/05 04:44:57;;;;;;;4.10;1.63;;;;;;;;;;4982146;28;20050;-58
2020/12/05 04:47:25;;;;;;;3.65;1.60;;;;;;;;;;4993275;28;20034;-56
2020/12/05 04:49:54;;;;;;;4.28;1.73;;;;;;;;;;5002329;28;20076;-60
2020/12/05 04:52:22;;;;;;;4.70;1.70;;;;;;;;;;4997284;28;20054;-59
2020/12/05 04:54:51;;;;;;;5.07;1.88;;;;;;;;;;5015949;28;20049;-58
2020/12/05 04:57:20;;;;;;;4.18;1.80;;;;;;;;;;4996809;28;20038;-59
2020/12/05 04:59:48;;;;;;;7.72;1.95;;;;;;;;;;5000241;28;20038;-58
2020/12/05 05:02:16;;;;;;;4.22;1.80;;;;;;;;;;4992436;28;20158;-57
2020/12/05 05:04:42;;;;;;;6.10;2.00;;;;;;;;;;4981398;28;20046;-55
2020/12/05 05:07:08;;;;;;;5.15;1.73;;;;;;;;;;4983498;28;20046;-55
2020/12/05 05:09:34;;;;;;;4.18;1.67;;;;;;;;;;5002177;28;20041;-58
2020/12/05 05:12:00;;;;;;;5.88;1.95;;;;;;;;;;4998774;28;20050;-56
2020/12/05 05:14:34;;;;;;;4.95;1.70;;;;;;;;;;5003353;28;20034;-54
2020/12/05 05:17:03;;;;;;;4.35;1.95;;;;;;;;;;4994836;28;20041;-61
2020/12/05 05:19:29;;;;;;;3.75;1.55;;;;;;;;;;4999586;28;20046;-56
2020/12/05 05:21:55;;;;;;;4.38;1.80;;;;;;;;;;4997737;28;20053;-57
2020/12/05 05:24:22;;;;;;;3.25;1.63;;;;;;;;;;4998540;28;20042;-57
2020/12/05 05:26:58;;;;;;;4.70;1.75;;;;;;;;;;4999400;28;20046;-57
2020/12/05 05:29:25;;;;;;;8.70;1.83;;;;;;;;;;4996672;28;20073;-59
2020/12/05 05:31:55;;;;;;;6.00;2.20;;;;;;;;;;5000854;28;20123;-57
2020/12/05 05:34:22;;;;;;;4.68;1.75;;;;;;;;;;4980804;28;20057;-56
2020/12/05 05:36:48;;;;;;;3.83;1.63;;;;;;;;;;4981512;28;20052;-56
2020/12/05 05:39:15;;;;;;;4.43;1.90;;;;;;;;;;4985723;28;20046;-58
2020/12/05 05:41:46;;;;;;;7.00;1.90;;;;;;;;;;4983371;28;20042;-58
2020/12/05 05:44:13;;;;;;;6.13;1.67;;;;;;;;;;4981580;28;20042;-59
2020/12/05 05:46:42;;;;;;;5.63;1.80;;;;;;;;;;4984244;28;20042;-55
2020/12/05 05:49:09;;;;;;;5.97;2.05;;;;;;;;;;4990987;28;20038;-55
2020/12/05 05:51:36;;;;;;;7.30;1.90;;;;;;;;;;5004862;28;20046;-58
2020/12/05 05:54:09;;;;;;;6.43;2.03;;;;;;;;;;4998334;28;20132;-61
2020/12/05 05:56:35;;;;;;;6.25;2.08;;;;;;;;;;5004135;28;20092;-58
2020/12/05 05:59:01;;;;;;;5.93;2.17;;;;;;;;;;5015757;28;20067;-61
2020/12/05 06:01:28;;;;;;;4.50;1.98;;;;;;;;;;5003755;28;20034;-58
2020/12/05 06:03:58;;;;;;;4.05;2.08;;;;;;;;;;5007709;28;20046;-61
2020/12/05 06:06:25;;;;;;;5.47;2.20;;;;;;;;;;5003791;28;20056;-58
2020/12/05 06:08:51;;;;;;;8.82;2.20;;;;;;;;;;5001682;28;20042;-60
2020/12/05 06:11:21;;;;;;;6.93;2.30;;;;;;;;;;5001872;28;20038;-59
2020/12/05 06:13:47;;;;;;;3.28;1.67;;;;;;;;;;5019272;28;20035;-58
2020/12/05 06:16:14;;;;;;;4.57;2.03;;;;;;;;;;5016493;28;20061;-57
2020/12/05 06:18:40;;;;;;;5.10;2.22;;;;;;;;;;5017845;28;20054;-60
2020/12/05 06:21:07;;;;;;;5.85;2.08;;;;;;;;;;5019831;28;20056;-55
2020/12/05 06:23:38;;;;;;;5.05;1.90;;;;;;;;;;5022181;28;20038;-58
2020/12/05 06:26:07;;;;;;;5.03;2.05;;;;;;;;;;5018652;28;20131;-56
2020/12/05 06:28:35;;;;;;;4.40;1.80;;;;;;;;;;5013842;28;20041;-58
2020/12/05 06:31:02;;;;;;;6.38;2.17;;;;;;;;;;5009736;28;20038;-60
2020/12/05 06:33:38;;;;;;;6.45;2.28;;;;;;;;;;5004311;28;20038;-57
2020/12/05 06:36:37;;;;;;;4.55;2.00;;;;;;;;;;5012759;28;20104;-56
2020/12/05 06:39:11;;;;;;;5.32;1.92;;;;;;;;;;4966014;28;20042;-58
2020/12/05 06:41:38;;;;;;;4.35;1.88;;;;;;;;;;4955297;28;20130;-58
2020/12/05 06:44:07;;;;;;;6.97;2.40;;;;;;;;;;4951640;28;20050;-55
2020/12/05 06:46:46;;;;;;;6.32;2.17;;;;;;;;;;4989831;28;20030;-57
2020/12/05 06:49:32;;;;;;;6.60;1.90;;;;;;;;;;5000574;28;20042;-59
2020/12/05 06:52:30;;;;;;;4.45;2.15;;;;;;;;;;5011733;28;20041;-57
2020/12/05 06:55:00;;;;;;;4.13;2.17;;;;;;;;;;5038848;28;20049;-59
2020/12/05 06:57:26;;;;;;;5.00;1.90;;;;;;;;;;5033113;28;20351;-58
2020/12/05 07:00:10;;;;;;;8.15;2.75;;;;;;;;;;5021886;28;20041;-60
2020/12/05 07:02:37;;;;;;;6.85;2.20;;;;;;;;;;5017286;28;20057;-58
2020/12/05 07:05:17;;;;;;;4.80;2.10;;;;;;;;;;5023799;28;20061;-58
2020/12/05 07:07:43;;;;;;;6.53;2.67;;;;;;;;;;5006552;28;20065;-53
2020/12/05 07:10:11;;;;;;;7.00;2.38;;;;;;;;;;5016282;28;20084;-56
2020/12/05 07:12:37;;;;;;;6.10;2.38;;;;;;;;;;5021532;28;20081;-58
2020/12/05 07:15:18;;;;;;;4.95;2.00;;;;;;;;;;5025485;28;20049;-60
2020/12/05 07:17:44;;;;;;;5.05;2.17;;;;;;;;;;5017850;28;20078;-58
2020/12/05 07:20:10;;;;;;;7.28;2.58;;;;;;;;;;5023721;28;20058;-52
2020/12/05 07:22:36;;;;;;;7.97;2.55;;;;;;;;;;5020669;28;20118;-57
2020/12/05 07:25:02;;;;;;;6.35;2.90;;;;;;;;;;5024317;28;20045;-59
2020/12/05 07:27:29;;;;;;;11.57;2.67;;;;;;;;;;5022080;28;20037;-59
2020/12/05 07:29:56;;;;;;;10.43;2.60;;;;;;;;;;5019249;28;20045;-60
2020/12/05 07:32:22;;;;;;;7.00;2.38;;;;;;;;;;5020750;28;20049;-59
2020/12/05 07:34:48;;;;;;;5.90;2.28;;;;;;;;;;5024525;28;20103;-58
2020/12/05 07:37:23;;;;;;;13.27;2.88;;;;;;;;;;5021799;28;20216;-58
2020/12/05 07:39:51;;;;;;;10.55;2.78;;;;;;;;;;4982380;28;20041;-58
2020/12/05 07:42:17;;;;;;;6.25;2.30;;;;;;;;;;4991042;28;20059;-57
2020/12/05 07:44:45;;;;;;;6.20;2.55;;;;;;;;;;4998774;28;20045;-57
2020/12/05 07:47:17;;;;;;;10.07;3.05;;;;;;;;;;5000827;28;20054;-58
2020/12/05 07:49:50;;;;;;;6.47;2.80;;;;;;;;;;4996644;28;20074;-58
2020/12/05 07:52:18;;;;;;;7.07;2.83;;;;;;;;;;5002171;28;20038;-57
2020/12/05 07:54:49;;;;;;;6.47;2.65;;;;;;;;;;4998142;28;20042;-58
2020/12/05 07:57:15;;;;;;;8.15;3.05;;;;;;;;;;5002319;28;20053;-57
2020/12/05 07:59:43;;;;;;;6.18;2.63;;;;;;;;;;4979414;28;20069;-56
2020/12/05 08:02:14;;;;;;;5.72;2.47;;;;;;;;;;4985079;28;20048;-57
2020/12/05 08:04:47;;;;;;;6.88;2.60;;;;;;;;;;4994499;28;20046;-57
2020/12/05 08:07:24;;;;;;;6.15;2.78;;;;;;;;;;5002457;28;20063;-57
2020/12/05 08:09:50;;;;;;;7.22;2.67;;;;;;;;;;4998839;28;20046;-59
2020/12/05 08:12:21;;;;;;;15.02;2.65;;;;;;;;;;5000260;28;20093;-58
2020/12/05 08:14:47;;;;;;;8.18;3.00;;;;;;;;;;4988713;28;20075;-57
2020/12/05 08:17:14;;;;;;;7.50;2.70;;;;;;;;;;4981338;28;20027;-55
2020/12/05 08:19:41;;;;;;;7.85;2.83;;;;;;;;;;4977872;28;20058;-58
2020/12/05 08:22:08;;;;;;;7.03;2.78;;;;;;;;;;4981961;28;20057;-58
2020/12/05 08:24:35;;;;;;;7.70;3.13;;;;;;;;;;4979057;28;20105;-56
2020/12/05 08:27:02;;;;;;;9.38;3.55;;;;;;;;;;4982202;28;20054;-58
2020/12/05 08:29:28;;;;;;;9.15;3.88;;;;;;;;;;4978731;28;20038;-58
2020/12/05 08:31:54;;;;;;;12.73;5.13;;;;;;;;;;4980824;28;20081;-59
2020/12/05 08:34:29;;;;;;;14.18;5.50;;;;;;;;;;5017141;28;20042;-58
2020/12/05 08:36:56;;;;;;;11.15;4.43;;;;;;;;;;4999610;28;20049;-60
2020/12/05 08:39:24;;;;;;;9.65;3.55;;;;;;;;;;5002160;28;20095;-60
2020/12/05 08:41:51;;;;;;;8.07;2.90;;;;;;;;;;4996304;28;20048;-60
2020/12/05 08:44:18;;;;;;;9.07;3.38;;;;;;;;;;5001137;28;20042;-58
2020/12/05 08:46:44;;;;;;;7.47;3.08;;;;;;;;;;4997294;28;20090;-57
2020/12/05 08:49:14;;;;;;;11.02;3.30;;;;;;;;;;5001342;28;20026;-58
2020/12/05 08:51:44;;;;;;;8.35;3.42;;;;;;;;;;4996884;28;20054;-55
2020/12/05 08:54:11;;;;;;;9.02;3.95;;;;;;;;;;5000196;28;20058;-57
2020/12/05 08:56:37;;;;;;;6.30;3.03;;;;;;;;;;4991401;28;20133;-58
2020/12/05 08:59:03;;;;;;;6.07;2.40;;;;;;;;;;5000923;28;20058;-58
2020/12/05 09:01:35;;;;;;;6.35;3.03;;;;;;;;;;4988096;28;20031;-59
2020/12/05 09:04:01;;;;;;;6.28;2.53;;;;;;;;;;4981850;28;20069;-60
2020/12/05 09:06:27;;;;;;;7.30;3.00;;;;;;;;;;4976796;28;20061;-59
2020/12/05 09:08:54;;;;;;;7.13;2.72;;;;;;;;;;4981775;28;20046;-57
2020/12/05 09:11:23;;;;;;;6.47;2.75;;;;;;;;;;4982236;28;20089;-57
2020/12/05 09:13:50;;;;;;;;;;;;;;;;;;5004818;28;20042;-60
2020/12/05 09:16:17;;;;;;;6.10;2.38;;;;;;;;;;5000691;28;19917;-58
2020/12/05 09:18:44;;;;;;;6.32;3.10;;;;;;;;;;5022587;28;20046;-59
2020/12/05 09:21:16;;;;;;;6.78;2.83;;;;;;;;;;5005872;28;20033;-59
2020/12/05 09:23:43;;;;;;;6.90;2.88;;;;;;;;;;5005016;28;20050;-60
2020/12/05 09:26:10;;;;;;;8.45;3.17;;;;;;;;;;5023826;28;20093;-60
2020/12/05 09:28:36;;;;;;;8.73;3.15;;;;;;;;;;5004103;28;20049;-59
2020/12/05 09:31:05;;;;;;;6.22;2.63;;;;;;;;;;5008118;28;20042;-58
2020/12/05 09:33:31;;;;;;;9.05;2.70;;;;;;;;;;5001269;28;20056;-60
2020/12/05 09:35:57;;;;;;;6.28;2.40;;;;;;;;;;5022418;28;20030;-59
2020/12/05 09:38:24;;;;;;;5.88;2.45;;;;;;;;;;5012954;28;20085;-57
2020/12/05 09:40:50;;;;;;;6.57;2.75;;;;;;;;;;5015028;28;20044;-60
2020/12/05 09:43:17;;;;;;;6.32;2.80;;;;;;;;;;4993348;28;20054;-54
2020/12/05 09:45:43;;;;;;;8.52;3.00;;;;;;;;;;4988923;28;20120;-58
2020/12/05 09:48:09;;;;;;;5.50;2.53;;;;;;;;;;4990348;28;20033;-60
2020/12/05 09:50:36;;;;;;;7.43;2.70;;;;;;;;;;4996564;28;20046;-57
2020/12/05 09:53:04;;;;;;;7.05;2.78;;;;;;;;;;4997863;28;20121;-57
2020/12/05 09:55:30;;;;;;;5.38;2.53;;;;;;;;;;4985014;28;20074;-58
2020/12/05 09:57:57;;;;;;;7.82;2.60;;;;;;;;;;4985020;28;20038;-57
2020/12/05 10:00:24;;;;;;;6.32;2.65;;;;;;;;;;4985958;28;20049;-60
2020/12/05 10:02:50;;;;;;;7.80;3.33;;;;;;;;;;4986171;28;20139;-59
2020/12/05 10:05:16;;;;;;;8.40;3.28;;;;;;;;;;5002497;28;20057;-58
2020/12/05 10:07:42;;;;;;;7.25;2.85;;;;;;;;;;5001856;28;20062;-59
2020/12/05 10:10:10;;;;;;;5.45;2.15;;;;;;;;;;5002368;28;20058;-60
2020/12/05 10:12:36;;;;;;;7.60;2.92;;;;;;;;;;5005955;28;20045;-56
2020/12/05 10:15:03;;;;;;;6.25;2.30;;;;;;;;;;5003028;28;20108;-60
2020/12/05 10:17:30;;;;;;;6.32;2.38;;;;;;;;;;5022429;28;20056;-57
2020/12/05 10:20:07;;;;;;;9.95;2.80;;;;;;;;;;5018994;28;20049;-58
2020/12/05 10:22:35;;;;;;;8.88;3.45;;;;;;;;;;4997227;28;20111;-60
2020/12/05 10:25:01;;;;;;;7.18;2.78;;;;;;;;;;4990465;28;20046;-59
2020/12/05 10:27:27;;;;;;;8.75;3.58;;;;;;;;;;4987115;28;20045;-58
2020/12/05 10:29:53;;;;;;;10.48;4.18;;;;;;;;;;4983521;28;20054;-59
2020/12/05 10:32:19;;;;;;;7.57;3.20;;;;;;;;;;4986198;28;20062;-60
2020/12/05 10:34:49;;;;;;;6.97;3.13;;;;;;;;;;4984539;28;20153;-59
2020/12/05 10:37:15;;;;;;;6.22;2.80;;;;;;;;;;4969493;28;20038;-59
2020/12/05 10:39:43;;;;;;;9.38;2.95;;;;;;;;;;4982783;28;20041;-59
2020/12/05 10:42:09;;;;;;;6.63;2.70;;;;;;;;;;4997530;28;20046;-59
2020/12/05 10:44:37;;;;;;;5.30;2.50;;;;;;;;;;5002450;28;20045;-60
2020/12/05 10:47:03;;;;;;;7.38;3.00;;;;;;;;;;5006740;28;20044;-60
2020/12/05 10:49:29;;;;;;;9.27;2.63;;;;;;;;;;5022878;28;20038;-57
2020/12/05 10:51:56;;;;;;;11.25;2.45;;;;;;;;;;5005509;28;20077;-60
2020/12/05 10:54:24;;;;;;;6.47;2.97;;;;;;;;;;5006808;28;20042;-59
2020/12/05 10:56:50;;;;;;;8.00;2.78;;;;;;;;;;4994121;28;20038;-56
2020/12/05 10:59:16;;;;;;;10.15;3.15;;;;;;;;;;4987451;28;20041;-57
2020/12/05 11:01:48;;;;;;;6.93;2.85;;;;;;;;;;4975534;28;20193;-59
2020/12/05 11:04:14;;;;;;;9.18;2.80;;;;;;;;;;4990066;28;20118;-55
2020/12/05 11:06:40;;;;;;;6.55;2.83;;;;;;;;;;4992074;28;20038;-55
2020/12/05 11:09:07;;;;;;;6.47;2.47;;;;;;;;;;5003216;28;20049;-58
2020/12/05 11:11:35;;;;;;;6.80;2.28;;;;;;;;;;4997953;28;20046;-60
2020/12/05 11:14:01;;;;;;;8.93;2.90;;;;;;;;;;5001334;28;20042;-61
2020/12/05 11:16:27;;;;;;;6.25;2.75;;;;;;;;;;4999031;28;20057;-59
2020/12/05 11:18:53;;;;;;;7.22;2.42;;;;;;;;;;4995563;28;20049;-59
2020/12/05 11:21:21;;;;;;;6.47;2.25;;;;;;;;;;4995928;28;20883;-59
2020/12/05 11:23:47;;;;;;;5.70;2.25;;;;;;;;;;4983474;28;20066;-59
2020/12/05 11:26:20;;;;;;;3.22;1.42;;;;;;;;;;4979094;28;20056;-58
2020/12/05 11:28:46;;;;;;;3.78;1.60;;;;;;;;;;4982324;28;20050;-59
2020/12/05 11:31:13;;;;;;;8.32;1.77;;;;;;;;;;4981865;28;20049;-58
2020/12/05 11:33:40;;;;;;;7.32;1.90;;;;;;;;;;4999509;28;20045;-58
2020/12/05 11:36:06;;;;;;;7.53;2.55;;;;;;;;;;5001435;28;20074;-58
2020/12/05 11:38:32;;;;;;;9.43;3.20;;;;;;;;;;4997039;28;20113;-59
2020/12/05 11:41:00;;;;;;;9.57;2.50;;;;;;;;;;5005994;28;20050;-59
2020/12/05 11:43:30;;;;;;;8.15;1.77;;;;;;;;;;5020494;28;20037;-58
2020/12/05 11:45:56;;;;;;;4.47;1.95;;;;;;;;;;5002697;28;20038;-55
2020/12/05 11:48:25;;;;;;;3.88;1.52;;;;;;;;;;4998544;28;20101;-58
2020/12/05 11:50:52;;;;;;;6.28;2.03;;;;;;;;;;4981352;28;20053;-58
2020/12/05 11:53:19;;;;;;;4.68;1.73;;;;;;;;;;5001662;28;20046;-55
2020/12/05 11:55:45;;;;;;;4.90;1.65;;;;;;;;;;4993569;28;20339;-58
2020/12/05 11:58:11;;;;;;;4.88;1.77;;;;;;;;;;4998043;28;20057;-58
2020/12/05 12:00:41;;;;;;;4.53;1.98;;;;;;;;;;4998168;28;20213;-58
2020/12/05 12:03:07;;;;;;;5.60;2.30;;;;;;;;;;5005707;28;20042;-58
2020/12/05 12:05:33;;;;;;;3.63;1.70;;;;;;;;;;5035542;28;20073;-60
2020/12/05 12:07:59;;;;;;;6.22;2.20;;;;;;;;;;5004402;28;20092;-61
2020/12/05 12:10:25;;;;;;;5.55;2.10;;;;;;;;;;5008644;28;20039;-56
2020/12/05 12:12:51;;;;;;;5.90;2.33;;;;;;;;;;5009491;28;20038;-59
2020/12/05 12:15:18;;;;;;;7.55;2.42;;;;;;;;;;4988239;28;20026;-58
2020/12/05 12:17:45;;;;;;;5.25;2.28;;;;;;;;;;4996896;28;20045;-59
2020/12/05 12:20:11;;;;;;;4.95;2.08;;;;;;;;;;5003458;28;20053;-58
2020/12/05 12:22:40;;;;;;;5.05;1.95;;;;;;;;;;5034022;28;20045;-58
2020/12/05 12:25:06;;;;;;;3.83;1.55;;;;;;;;;;5004254;28;20056;-60
2020/12/05 12:27:32;;;;;;;8.20;3.05;;;;;;;;;;5017942;28;20045;-59
2020/12/05 12:29:58;;;;;;;10.77;3.92;;;;;;;;;;5005498;28;20056;-61
2020/12/05 12:32:27;;;;;;;10.65;2.30;;;;;;;;;;5001568;28;20169;-56
2020/12/05 12:34:57;;;;;;;5.35;2.00;;;;;;;;;;5004739;28;20042;-58
2020/12/05 12:37:28;;;;;;;6.30;2.30;;;;;;;;;;4999409;28;20050;-58
2020/12/05 12:39:56;;;;;;;6.30;2.10;;;;;;;;;;5002577;28;20123;-57
2020/12/05 12:42:26;;;;;;;7.90;2.40;;;;;;;;;;5027400;28;20045;-59
2020/12/05 12:44:53;;;;;;;3.40;1.63;;;;;;;;;;5020360;28;20057;-59
2020/12/05 12:47:38;;;;;;;4.88;1.95;;;;;;;;;;5019924;28;20053;-57
2020/12/05 12:50:06;;;;;;;5.80;1.92;;;;;;;;;;5003552;28;20131;-58
2020/12/05 12:52:32;;;;;;;3.78;1.77;;;;;;;;;;5004555;28;20105;-60
2020/12/05 12:54:58;;;;;;;6.22;2.08;;;;;;;;;;5015347;28;20065;-60
2020/12/05 12:57:28;;;;;;;6.10;2.00;;;;;;;;;;5003537;28;20045;-57
2020/12/05 13:00:01;;;;;;;5.47;2.10;;;;;;;;;;4975394;28;20053;-60
2020/12/05 13:02:27;;;;;;;4.32;1.40;;;;;;;;;;4984491;28;20053;-58
2020/12/05 13:04:53;;;;;;;6.70;2.05;;;;;;;;;;4977957;28;20105;-58
2020/12/05 13:07:22;;;;;;;5.95;2.00;;;;;;;;;;4997543;28;20058;-58
2020/12/05 13:09:52;;;;;;;5.95;2.03;;;;;;;;;;4982564;28;20140;-59
2020/12/05 13:12:18;;;;;;;3.50;1.90;;;;;;;;;;4980806;28;20049;-58
2020/12/05 13:14:47;;;;;;;5.60;2.00;;;;;;;;;;4978633;28;20041;-60
2020/12/05 13:17:13;;;;;;;6.25;2.95;;;;;;;;;;4980800;28;20062;-60
2020/12/05 13:19:39;;;;;;;5.53;2.30;;;;;;;;;;4983916;28;20057;-60
2020/12/05 13:22:06;;;;;;;5.35;2.13;;;;;;;;;;5000295;28;20038;-60
2020/12/05 13:24:32;;;;;;;7.85;3.28;;;;;;;;;;4997024;28;20037;-60
2020/12/05 13:26:59;;;;;;;6.63;2.60;;;;;;;;;;5004901;28;20054;-59
2020/12/05 13:29:25;;;;;;;11.40;4.00;;;;;;;;;;4990761;28;20071;-57
2020/12/05 13:31:53;;;;;;;9.50;4.15;;;;;;;;;;5000199;28;20049;-60
2020/12/05 13:34:19;;;;;;;8.07;3.00;;;;;;;;;;4993568;28;20073;-58
2020/12/05 13:36:45;;;;;;;7.85;3.13;;;;;;;;;;4998867;28;20050;-54
2020/12/05 13:39:12;;;;;;;12.88;4.93;;;;;;;;;;5001707;28;20042;-56
2020/12/05 13:41:41;;;;;;;11.57;4.95;;;;;;;;;;5006906;28;20047;-58
2020/12/05 13:44:07;;;;;;;8.05;3.63;;;;;;;;;;5018556;28;20053;-58
2020/12/05 13:46:33;;;;;;;9.40;3.53;;;;;;;;;;5000572;28;20056;-57
2020/12/05 13:48:59;;;;;;;8.02;3.67;;;;;;;;;;5000907;28;20048;-55
2020/12/05 13:51:28;;;;;;;9.52;4.05;;;;;;;;;;4996490;28;20038;-58
2020/12/05 13:53:55;;;;;;;9.15;3.47;;;;;;;;;;5000262;28;20133;-58
2020/12/05 13:56:27;;;;;;;9.82;3.72;;;;;;;;;;4986838;28;20169;-58
2020/12/05 13:58:54;;;;;;;9.65;3.03;;;;;;;;;;4983535;28;20070;-58
2020/12/05 14:01:20;;;;;;;9.10;2.80;;;;;;;;;;4982233;28;20042;-60
2020/12/05 14:03:46;;;;;;;8.50;3.40;;;;;;;;;;4982962;28;20057;-55
2020/12/05 14:06:12;;;;;;;6.88;2.97;;;;;;;;;;4981556;28;20046;-57
2020/12/05 14:08:39;;;;;;;9.27;3.47;;;;;;;;;;4982425;28;20078;-60
2020/12/05 14:11:05;;;;;;;8.13;3.40;;;;;;;;;;4999590;28;20034;-57
2020/12/05 14:13:32;;;;;;;8.68;3.97;;;;;;;;;;5003217;28;20108;-59
2020/12/05 14:15:59;;;;;;;12.90;4.50;;;;;;;;;;5000637;28;20069;-57
2020/12/05 14:18:25;;;;;;;12.07;3.53;;;;;;;;;;5003016;28;20056;-58
2020/12/05 14:20:51;;;;;;;14.05;4.00;;;;;;;;;;5002153;28;20050;-59
2020/12/05 14:23:17;;;;;;;8.50;3.47;;;;;;;;;;4983304;28;20043;-57
2020/12/05 14:25:44;;;;;;;9.13;3.25;;;;;;;;;;4982412;28;20061;-57
2020/12/05 14:28:10;;;;;;;8.45;3.28;;;;;;;;;;4992986;28;20041;-59
2020/12/05 14:30:36;;;;;;;6.72;2.90;;;;;;;;;;5002918;28;20044;-59
2020/12/05 14:33:03;;;;;;;5.75;2.50;;;;;;;;;;5000235;28;20042;-55
2020/12/05 14:35:32;;;;;;;6.65;2.90;;;;;;;;;;4989598;28;20037;-56
2020/12/05 14:37:58;;;;;;;;;;;;;;;;;;4989153;28;20054;-56
2020/12/05 14:40:25;;;;;;;5.70;2.58;;;;;;;;;;4997374;28;20070;-60
2020/12/05 14:42:51;;;;;;;7.15;2.95;;;;;;;;;;4998777;28;20292;-55
2020/12/05 14:45:20;;;;;;;7.45;3.15;;;;;;;;;;4993269;28;20030;-58